sensor_id;sensor_type;location;lat;lon;timestamp;temperature;humidity
15717;DHT22;7960;50.908;4.204;2022-10-22T00:01:03;15.30;99.90
15717;DHT22;7960;50.908;4.204;2022-10-22T00:03:31;15.30;99.90
15717;DHT22;7960;50.908;4.204;2022-10-22T00:05:58;15.30;99.90
15717;DHT22;7960;50.908;4.204;2022-10-22T00:08:25;15.30;99.90
15717;DHT22;7960;50.908;4.204;2022-10-22T00:10:52;15.30;99.90
15717;DHT22;7960;50.908;4.204;2022-10-22T00:13:19;15.30;99.90
15717;DHT22;7960;50.908;4.204;2022-10-22T00:15:46;15.30;99.90
15717;DHT22;7960;50.908;4.204;2022-10-22T00:18:14;15.40;99.90
15717;DHT22;7960;50.908;4.204;2022-10-22T00:20:41;15.40;99.90
15717;DHT22;7960;50.908;4.204;2022-10-22T00:23:10;15.40;99.90
15717;DHT22;7960;50.908;4.204;2022-10-22T00:25:37;15.50;99.90
15717;DHT22;7960;50.908;4.204;2022-10-22T00:28:07;15.50;99.90
15717;DHT22;7960;50.908;4.204;2022-10-22T00:30:36;15.30;99.90
15717;DHT22;7960;50.908;4.204;2022-10-22T00:33:03;15.20;99.90
15717;DHT22;7960;50.908;4.204;2022-10-22T00:35:31;15.10;99.90
15717;DHT22;7960;50.908;4.204;2022-10-22T00:37:58;15.20;99.90
15717;DHT22;7960;50.908;4.204;2022-10-22T00:40:25;15.10;99.90
15717;DHT22;7960;50.908;4.204;2022-10-22T00:42:52;15.10;99.90
15717;DHT22;7960;50.908;4.204;2022-10-22T00:45:24;15.10;99.90
15717;DHT22;7960;50.908;4.204;2022-10-22T00:47:56;15.10;99.90
15717;DHT22;7960;50.908;4.204;2022-10-22T00:50:29;15.10;99.90
15717;DHT22;7960;50.908;4.204;2022-10-22T00:52:59;15.10;99.90
15717;DHT22;7960;50.908;4.204;2022-10-22T00:55:27;15.10;99.90
15717;DHT22;7960;50.908;4.204;2022-10-22T00:57:56;15.10;99.90
15717;DHT22;7960;50.908;4.204;2022-10-22T01:00:23;15.00;99.90
15717;DHT22;7960;50.908;4.204;2022-10-22T01:02:51;15.00;99.90
15717;DHT22;7960;50.908;4.204;2022-10-22T01:05:19;15.00;99.90
15717;DHT22;7960;50.908;4.204;2022-10-22T01:07:48;15.10;99.90
15717;DHT22;7960;50.908;4.204;2022-10-22T01:13:16;15.10;99.90
15717;DHT22;7960;50.908;4.204;2022-10-22T01:15:51;15.00;99.90
15717;DHT22;7960;50.908;4.204;2022-10-22T01:18:22;15.00;99.90
15717;DHT22;7960;50.908;4.204;2022-10-22T01:20:57;15.00;99.90
15717;DHT22;7960;50.908;4.204;2022-10-22T01:23:51;15.00;99.90
15717;DHT22;7960;50.908;4.204;2022-10-22T01:26:34;15.00;99.90
15717;DHT22;7960;50.908;4.204;2022-10-22T01:29:08;15.10;99.90
15717;DHT22;7960;50.908;4.204;2022-10-22T01:31:40;15.10;99.90
15717;DHT22;7960;50.908;4.204;2022-10-22T01:34:10;15.20;99.90
15717;DHT22;7960;50.908;4.204;2022-10-22T01:36:39;15.10;99.90
15717;DHT22;7960;50.908;4.204;2022-10-22T01:39:07;15.20;99.90
15717;DHT22;7960;50.908;4.204;2022-10-22T01:41:34;15.20;99.90
15717;DHT22;7960;50.908;4.204;2022-10-22T01:44:01;15.10;99.90
15717;DHT22;7960;50.908;4.204;2022-10-22T01:46:30;15.10;99.90
15717;DHT22;7960;50.908;4.204;2022-10-22T01:49:11;15.30;99.90
15717;DHT22;7960;50.908;4.204;2022-10-22T01:51:52;15.20;99.90
15717;DHT22;7960;50.908;4.204;2022-10-22T01:54:31;15.10;99.90
15717;DHT22;7960;50.908;4.204;2022-10-22T01:57:09;15.10;99.90
15717;DHT22;7960;50.908;4.204;2022-10-22T01:59:45;15.10;99.90
15717;DHT22;7960;50.908;4.204;2022-10-22T02:02:27;15.10;99.90
15717;DHT22;7960;50.908;4.204;2022-10-22T02:04:59;15.10;99.90
15717;DHT22;7960;50.908;4.204;2022-10-22T02:07:30;15.10;99.90
15717;DHT22;7960;50.908;4.204;2022-10-22T02:09:58;15.10;99.90
15717;DHT22;7960;50.908;4.204;2022-10-22T02:12:27;15.10;99.90
15717;DHT22;7960;50.908;4.204;2022-10-22T02:14:55;15.10;99.90
15717;DHT22;7960;50.908;4.204;2022-10-22T02:17:28;15.10;99.90
15717;DHT22;7960;50.908;4.204;2022-10-22T02:19:59;15.00;99.90
15717;DHT22;7960;50.908;4.204;2022-10-22T02:22:27;15.10;99.90
15717;DHT22;7960;50.908;4.204;2022-10-22T02:24:54;15.00;99.90
15717;DHT22;7960;50.908;4.204;2022-10-22T02:27:25;15.00;99.90
15717;DHT22;7960;50.908;4.204;2022-10-22T02:29:57;15.00;99.90
15717;DHT22;7960;50.908;4.204;2022-10-22T02:32:32;14.90;99.90
15717;DHT22;7960;50.908;4.204;2022-10-22T02:35:00;15.00;99.90
15717;DHT22;7960;50.908;4.204;2022-10-22T02:37:28;15.00;99.90
15717;DHT22;7960;50.908;4.204;2022-10-22T02:39:55;15.00;99.90
15717;DHT22;7960;50.908;4.204;2022-10-22T02:42:23;15.00;99.90
15717;DHT22;7960;50.908;4.204;2022-10-22T02:44:51;14.90;99.90
15717;DHT22;7960;50.908;4.204;2022-10-22T02:47:17;14.90;99.90
15717;DHT22;7960;50.908;4.204;2022-10-22T02:49:46;14.90;99.90
15717;DHT22;7960;50.908;4.204;2022-10-22T02:52:12;15.00;99.90
15717;DHT22;7960;50.908;4.204;2022-10-22T02:54:39;14.90;99.90
15717;DHT22;7960;50.908;4.204;2022-10-22T02:57:07;14.90;99.90
15717;DHT22;7960;50.908;4.204;2022-10-22T02:59:34;14.90;99.90
15717;DHT22;7960;50.908;4.204;2022-10-22T03:02:01;14.90;99.90
15717;DHT22;7960;50.908;4.204;2022-10-22T03:04:28;15.00;99.90
15717;DHT22;7960;50.908;4.204;2022-10-22T03:06:56;15.00;99.90
15717;DHT22;7960;50.908;4.204;2022-10-22T03:09:23;14.90;99.90
15717;DHT22;7960;50.908;4.204;2022-10-22T03:11:50;14.80;99.90
15717;DHT22;7960;50.908;4.204;2022-10-22T03:14:17;14.80;99.90
15717;DHT22;7960;50.908;4.204;2022-10-22T03:16:44;14.80;99.90
15717;DHT22;7960;50.908;4.204;2022-10-22T03:19:13;14.80;99.90
15717;DHT22;7960;50.908;4.204;2022-10-22T03:21:43;14.80;99.90
15717;DHT22;7960;50.908;4.204;2022-10-22T03:24:16;14.80;99.90
15717;DHT22;7960;50.908;4.204;2022-10-22T03:26:44;14.80;99.90
15717;DHT22;7960;50.908;4.204;2022-10-22T03:29:14;14.90;99.90
15717;DHT22;7960;50.908;4.204;2022-10-22T03:31:41;14.80;99.90
15717;DHT22;7960;50.908;4.204;2022-10-22T03:34:07;14.80;99.90
15717;DHT22;7960;50.908;4.204;2022-10-22T03:36:36;14.80;99.90
15717;DHT22;7960;50.908;4.204;2022-10-22T03:39:04;14.80;99.90
15717;DHT22;7960;50.908;4.204;2022-10-22T03:41:32;14.80;99.90
15717;DHT22;7960;50.908;4.204;2022-10-22T03:44:00;14.70;99.90
15717;DHT22;7960;50.908;4.204;2022-10-22T03:46:27;14.80;99.90
15717;DHT22;7960;50.908;4.204;2022-10-22T03:48:54;14.70;99.90
15717;DHT22;7960;50.908;4.204;2022-10-22T03:51:21;14.60;99.90
15717;DHT22;7960;50.908;4.204;2022-10-22T03:53:48;14.60;99.90
15717;DHT22;7960;50.908;4.204;2022-10-22T03:56:15;14.70;99.90
15717;DHT22;7960;50.908;4.204;2022-10-22T03:58:43;14.60;99.90
15717;DHT22;7960;50.908;4.204;2022-10-22T04:01:11;14.60;99.90
15717;DHT22;7960;50.908;4.204;2022-10-22T04:03:38;14.70;99.90
15717;DHT22;7960;50.908;4.204;2022-10-22T04:06:07;14.80;99.90
15717;DHT22;7960;50.908;4.204;2022-10-22T04:08:35;14.70;99.90
15717;DHT22;7960;50.908;4.204;2022-10-22T04:11:02;14.70;99.90
15717;DHT22;7960;50.908;4.204;2022-10-22T04:13:29;14.60;99.90
15717;DHT22;7960;50.908;4.204;2022-10-22T04:16:05;14.60;99.90
15717;DHT22;7960;50.908;4.204;2022-10-22T04:18:32;14.70;99.90
15717;DHT22;7960;50.908;4.204;2022-10-22T04:20:59;14.70;99.90
15717;DHT22;7960;50.908;4.204;2022-10-22T04:23:26;14.60;99.90
15717;DHT22;7960;50.908;4.204;2022-10-22T04:25:57;14.70;99.90
15717;DHT22;7960;50.908;4.204;2022-10-22T04:28:24;14.70;99.90
15717;DHT22;7960;50.908;4.204;2022-10-22T04:30:51;14.70;99.90
15717;DHT22;7960;50.908;4.204;2022-10-22T04:33:19;14.70;99.90
15717;DHT22;7960;50.908;4.204;2022-10-22T04:35:46;14.60;99.90
15717;DHT22;7960;50.908;4.204;2022-10-22T04:38:13;14.60;99.90
15717;DHT22;7960;50.908;4.204;2022-10-22T04:40:40;14.60;99.90
15717;DHT22;7960;50.908;4.204;2022-10-22T04:43:07;14.60;99.90
15717;DHT22;7960;50.908;4.204;2022-10-22T04:45:35;14.70;99.90
15717;DHT22;7960;50.908;4.204;2022-10-22T04:48:02;14.70;99.90
15717;DHT22;7960;50.908;4.204;2022-10-22T04:50:30;14.70;99.90
15717;DHT22;7960;50.908;4.204;2022-10-22T04:52:57;14.70;99.90
15717;DHT22;7960;50.908;4.204;2022-10-22T04:55:23;14.80;99.90
15717;DHT22;7960;50.908;4.204;2022-10-22T04:57:50;14.80;99.90
15717;DHT22;7960;50.908;4.204;2022-10-22T05:00:17;14.80;99.90
15717;DHT22;7960;50.908;4.204;2022-10-22T05:02:48;14.80;99.90
15717;DHT22;7960;50.908;4.204;2022-10-22T05:05:15;14.80;99.90
15717;DHT22;7960;50.908;4.204;2022-10-22T05:07:43;14.80;99.90
15717;DHT22;7960;50.908;4.204;2022-10-22T05:10:10;14.80;99.90
15717;DHT22;7960;50.908;4.204;2022-10-22T05:12:37;14.80;99.90
15717;DHT22;7960;50.908;4.204;2022-10-22T05:15:05;14.90;99.90
15717;DHT22;7960;50.908;4.204;2022-10-22T05:17:34;14.80;99.90
15717;DHT22;7960;50.908;4.204;2022-10-22T05:20:02;14.90;99.90
15717;DHT22;7960;50.908;4.204;2022-10-22T05:22:28;15.00;99.90
15717;DHT22;7960;50.908;4.204;2022-10-22T05:24:57;15.00;99.90
15717;DHT22;7960;50.908;4.204;2022-10-22T05:27:23;14.90;99.90
15717;DHT22;7960;50.908;4.204;2022-10-22T05:29:51;15.00;99.90
15717;DHT22;7960;50.908;4.204;2022-10-22T05:32:17;15.00;99.90
15717;DHT22;7960;50.908;4.204;2022-10-22T05:34:44;15.00;99.90
15717;DHT22;7960;50.908;4.204;2022-10-22T05:37:11;15.10;99.90
15717;DHT22;7960;50.908;4.204;2022-10-22T05:39:38;15.00;99.90
15717;DHT22;7960;50.908;4.204;2022-10-22T05:42:07;15.10;99.90
15717;DHT22;7960;50.908;4.204;2022-10-22T05:44:34;15.00;99.90
15717;DHT22;7960;50.908;4.204;2022-10-22T05:47:01;15.00;99.90
15717;DHT22;7960;50.908;4.204;2022-10-22T05:49:27;15.00;99.90
15717;DHT22;7960;50.908;4.204;2022-10-22T05:51:54;15.10;99.90
15717;DHT22;7960;50.908;4.204;2022-10-22T05:54:21;15.10;99.90
15717;DHT22;7960;50.908;4.204;2022-10-22T05:56:48;15.10;99.90
15717;DHT22;7960;50.908;4.204;2022-10-22T05:59:16;15.10;99.90
15717;DHT22;7960;50.908;4.204;2022-10-22T06:01:43;15.10;99.90
15717;DHT22;7960;50.908;4.204;2022-10-22T06:04:12;15.20;99.90
15717;DHT22;7960;50.908;4.204;2022-10-22T06:06:43;15.10;99.90
15717;DHT22;7960;50.908;4.204;2022-10-22T06:09:13;15.10;99.90
15717;DHT22;7960;50.908;4.204;2022-10-22T06:11:41;15.20;99.90
15717;DHT22;7960;50.908;4.204;2022-10-22T06:16:38;15.20;99.90
15717;DHT22;7960;50.908;4.204;2022-10-22T06:19:05;15.10;99.90
15717;DHT22;7960;50.908;4.204;2022-10-22T06:21:32;15.10;99.90
15717;DHT22;7960;50.908;4.204;2022-10-22T06:24:00;15.10;99.90
15717;DHT22;7960;50.908;4.204;2022-10-22T06:26:27;15.20;99.90
15717;DHT22;7960;50.908;4.204;2022-10-22T06:28:54;15.20;99.90
15717;DHT22;7960;50.908;4.204;2022-10-22T06:31:21;15.20;99.90
15717;DHT22;7960;50.908;4.204;2022-10-22T06:33:49;15.30;99.90
15717;DHT22;7960;50.908;4.204;2022-10-22T06:36:18;15.30;99.90
15717;DHT22;7960;50.908;4.204;2022-10-22T06:38:45;15.30;99.90
15717;DHT22;7960;50.908;4.204;2022-10-22T06:41:14;15.30;99.90
15717;DHT22;7960;50.908;4.204;2022-10-22T06:43:42;15.20;99.90
15717;DHT22;7960;50.908;4.204;2022-10-22T06:46:13;15.30;99.90
15717;DHT22;7960;50.908;4.204;2022-10-22T06:48:40;15.30;99.90
15717;DHT22;7960;50.908;4.204;2022-10-22T06:51:10;15.20;99.90
15717;DHT22;7960;50.908;4.204;2022-10-22T06:53:38;15.20;99.90
15717;DHT22;7960;50.908;4.204;2022-10-22T06:56:06;15.20;99.90
15717;DHT22;7960;50.908;4.204;2022-10-22T06:58:33;15.20;99.90
15717;DHT22;7960;50.908;4.204;2022-10-22T07:01:01;15.10;99.90
15717;DHT22;7960;50.908;4.204;2022-10-22T07:03:29;15.20;99.90
15717;DHT22;7960;50.908;4.204;2022-10-22T07:05:58;15.20;99.90
15717;DHT22;7960;50.908;4.204;2022-10-22T07:08:29;15.20;99.90
15717;DHT22;7960;50.908;4.204;2022-10-22T07:11:04;15.20;99.90
15717;DHT22;7960;50.908;4.204;2022-10-22T07:13:31;15.20;99.90
15717;DHT22;7960;50.908;4.204;2022-10-22T07:15:58;15.10;99.90
15717;DHT22;7960;50.908;4.204;2022-10-22T07:18:25;15.10;99.90
15717;DHT22;7960;50.908;4.204;2022-10-22T07:20:52;15.10;99.90
15717;DHT22;7960;50.908;4.204;2022-10-22T07:23:19;15.10;99.90
15717;DHT22;7960;50.908;4.204;2022-10-22T07:25:48;15.10;99.90
15717;DHT22;7960;50.908;4.204;2022-10-22T07:28:14;15.10;99.90
15717;DHT22;7960;50.908;4.204;2022-10-22T07:30:42;15.10;99.90
15717;DHT22;7960;50.908;4.204;2022-10-22T07:33:09;15.20;99.90
15717;DHT22;7960;50.908;4.204;2022-10-22T07:35:38;15.30;99.90
15717;DHT22;7960;50.908;4.204;2022-10-22T07:38:06;15.30;99.90
15717;DHT22;7960;50.908;4.204;2022-10-22T07:40:33;15.30;99.90
15717;DHT22;7960;50.908;4.204;2022-10-22T07:43:02;15.40;99.90
15717;DHT22;7960;50.908;4.204;2022-10-22T07:45:29;15.40;99.90
15717;DHT22;7960;50.908;4.204;2022-10-22T07:47:56;15.50;99.90
15717;DHT22;7960;50.908;4.204;2022-10-22T07:50:24;15.50;99.90
15717;DHT22;7960;50.908;4.204;2022-10-22T07:52:51;15.50;99.90
15717;DHT22;7960;50.908;4.204;2022-10-22T07:55:18;15.50;99.90
15717;DHT22;7960;50.908;4.204;2022-10-22T07:57:44;15.60;99.90
15717;DHT22;7960;50.908;4.204;2022-10-22T08:00:15;15.70;99.90
15717;DHT22;7960;50.908;4.204;2022-10-22T08:02:42;15.60;99.90
15717;DHT22;7960;50.908;4.204;2022-10-22T08:05:09;15.60;99.90
15717;DHT22;7960;50.908;4.204;2022-10-22T08:07:38;15.70;99.90
15717;DHT22;7960;50.908;4.204;2022-10-22T08:10:05;15.70;99.90
15717;DHT22;7960;50.908;4.204;2022-10-22T08:12:33;15.70;99.90
15717;DHT22;7960;50.908;4.204;2022-10-22T08:15:01;15.70;99.90
15717;DHT22;7960;50.908;4.204;2022-10-22T08:17:31;15.70;99.90
15717;DHT22;7960;50.908;4.204;2022-10-22T08:19:58;15.70;99.90
15717;DHT22;7960;50.908;4.204;2022-10-22T08:22:25;15.70;99.90
15717;DHT22;7960;50.908;4.204;2022-10-22T08:24:52;15.70;99.90
15717;DHT22;7960;50.908;4.204;2022-10-22T08:27:19;15.60;99.90
15717;DHT22;7960;50.908;4.204;2022-10-22T08:29:46;15.60;99.90
15717;DHT22;7960;50.908;4.204;2022-10-22T08:32:14;15.70;99.90
15717;DHT22;7960;50.908;4.204;2022-10-22T08:34:42;15.70;99.90
15717;DHT22;7960;50.908;4.204;2022-10-22T08:37:09;15.80;99.90
15717;DHT22;7960;50.908;4.204;2022-10-22T08:39:38;16.00;99.90
15717;DHT22;7960;50.908;4.204;2022-10-22T08:42:20;16.00;99.90
15717;DHT22;7960;50.908;4.204;2022-10-22T08:45:03;16.00;99.90
15717;DHT22;7960;50.908;4.204;2022-10-22T08:47:47;16.10;99.90
15717;DHT22;7960;50.908;4.204;2022-10-22T08:50:23;16.20;99.90
15717;DHT22;7960;50.908;4.204;2022-10-22T08:53:11;16.30;99.90
15717;DHT22;7960;50.908;4.204;2022-10-22T08:55:39;16.20;99.90
15717;DHT22;7960;50.908;4.204;2022-10-22T08:58:13;16.30;99.90
15717;DHT22;7960;50.908;4.204;2022-10-22T09:00:45;16.30;99.90
15717;DHT22;7960;50.908;4.204;2022-10-22T09:03:35;16.10;99.90
15717;DHT22;7960;50.908;4.204;2022-10-22T09:06:09;16.10;99.90
15717;DHT22;7960;50.908;4.204;2022-10-22T09:08:38;16.10;99.90
15717;DHT22;7960;50.908;4.204;2022-10-22T09:11:27;16.10;99.90
15717;DHT22;7960;50.908;4.204;2022-10-22T09:14:02;16.30;99.90
15717;DHT22;7960;50.908;4.204;2022-10-22T09:16:35;16.50;99.90
15717;DHT22;7960;50.908;4.204;2022-10-22T09:19:11;16.70;99.90
15717;DHT22;7960;50.908;4.204;2022-10-22T09:21:49;16.80;99.90
15717;DHT22;7960;50.908;4.204;2022-10-22T09:24:27;16.80;99.90
15717;DHT22;7960;50.908;4.204;2022-10-22T09:26:57;16.70;99.90
15717;DHT22;7960;50.908;4.204;2022-10-22T09:29:31;16.60;99.90
15717;DHT22;7960;50.908;4.204;2022-10-22T09:31:58;16.50;99.90
15717;DHT22;7960;50.908;4.204;2022-10-22T09:34:25;16.40;99.90
15717;DHT22;7960;50.908;4.204;2022-10-22T09:36:58;16.30;99.90
15717;DHT22;7960;50.908;4.204;2022-10-22T09:39:27;16.40;99.90
15717;DHT22;7960;50.908;4.204;2022-10-22T09:42:00;16.50;99.90
15717;DHT22;7960;50.908;4.204;2022-10-22T09:44:32;16.50;99.90
15717;DHT22;7960;50.908;4.204;2022-10-22T09:47:03;16.50;99.90
15717;DHT22;7960;50.908;4.204;2022-10-22T09:49:33;16.50;99.90
15717;DHT22;7960;50.908;4.204;2022-10-22T09:52:02;16.60;99.90
15717;DHT22;7960;50.908;4.204;2022-10-22T09:54:41;16.60;99.90
15717;DHT22;7960;50.908;4.204;2022-10-22T09:57:13;16.60;99.90
15717;DHT22;7960;50.908;4.204;2022-10-22T09:59:46;16.70;99.90
15717;DHT22;7960;50.908;4.204;2022-10-22T10:02:18;16.70;99.90
15717;DHT22;7960;50.908;4.204;2022-10-22T10:04:50;16.80;99.90
15717;DHT22;7960;50.908;4.204;2022-10-22T10:07:20;16.80;99.90
15717;DHT22;7960;50.908;4.204;2022-10-22T10:09:48;17.00;99.90
15717;DHT22;7960;50.908;4.204;2022-10-22T10:12:24;17.10;99.90
15717;DHT22;7960;50.908;4.204;2022-10-22T10:15:02;17.20;99.90
15717;DHT22;7960;50.908;4.204;2022-10-22T10:17:39;17.20;99.90
15717;DHT22;7960;50.908;4.204;2022-10-22T10:20:21;17.20;99.90
15717;DHT22;7960;50.908;4.204;2022-10-22T10:23:02;17.40;99.90
15717;DHT22;7960;50.908;4.204;2022-10-22T10:25:51;17.40;99.90
15717;DHT22;7960;50.908;4.204;2022-10-22T10:28:35;17.60;99.90
15717;DHT22;7960;50.908;4.204;2022-10-22T10:31:13;17.60;99.90
15717;DHT22;7960;50.908;4.204;2022-10-22T10:33:50;17.50;99.90
15717;DHT22;7960;50.908;4.204;2022-10-22T10:36:29;17.60;99.90
15717;DHT22;7960;50.908;4.204;2022-10-22T10:39:05;17.70;99.90
15717;DHT22;7960;50.908;4.204;2022-10-22T10:41:42;17.90;99.90
15717;DHT22;7960;50.908;4.204;2022-10-22T10:47:13;18.00;99.90
15717;DHT22;7960;50.908;4.204;2022-10-22T10:49:42;18.00;99.90
15717;DHT22;7960;50.908;4.204;2022-10-22T10:52:15;18.00;99.90
15717;DHT22;7960;50.908;4.204;2022-10-22T10:54:56;18.10;99.90
15717;DHT22;7960;50.908;4.204;2022-10-22T10:57:38;18.30;99.90
15717;DHT22;7960;50.908;4.204;2022-10-22T11:00:09;18.60;99.90
15717;DHT22;7960;50.908;4.204;2022-10-22T11:03:08;18.50;99.90
15717;DHT22;7960;50.908;4.204;2022-10-22T11:05:43;18.50;99.90
15717;DHT22;7960;50.908;4.204;2022-10-22T11:08:16;18.40;99.90
15717;DHT22;7960;50.908;4.204;2022-10-22T11:10:50;18.50;99.90
15717;DHT22;7960;50.908;4.204;2022-10-22T11:13:22;18.70;99.90
15717;DHT22;7960;50.908;4.204;2022-10-22T11:15:59;18.90;99.90
15717;DHT22;7960;50.908;4.204;2022-10-22T11:18:34;19.20;99.90
15717;DHT22;7960;50.908;4.204;2022-10-22T11:21:12;19.20;99.90
15717;DHT22;7960;50.908;4.204;2022-10-22T11:23:47;19.50;99.90
15717;DHT22;7960;50.908;4.204;2022-10-22T11:26:28;19.80;99.90
15717;DHT22;7960;50.908;4.204;2022-10-22T11:28:57;19.90;99.90
15717;DHT22;7960;50.908;4.204;2022-10-22T11:31:26;20.00;99.90
15717;DHT22;7960;50.908;4.204;2022-10-22T11:33:59;20.20;99.90
15717;DHT22;7960;50.908;4.204;2022-10-22T11:36:30;20.20;99.90
15717;DHT22;7960;50.908;4.204;2022-10-22T11:38:57;20.20;99.90
15717;DHT22;7960;50.908;4.204;2022-10-22T11:41:29;20.00;99.90
15717;DHT22;7960;50.908;4.204;2022-10-22T11:44:07;20.00;99.90
15717;DHT22;7960;50.908;4.204;2022-10-22T11:46:44;19.90;99.90
15717;DHT22;7960;50.908;4.204;2022-10-22T11:49:23;19.60;99.90
15717;DHT22;7960;50.908;4.204;2022-10-22T11:51:50;19.30;99.90
15717;DHT22;7960;50.908;4.204;2022-10-22T11:54:30;18.90;99.90
15717;DHT22;7960;50.908;4.204;2022-10-22T11:57:20;18.70;99.90
15717;DHT22;7960;50.908;4.204;2022-10-22T11:59:51;18.70;99.90
15717;DHT22;7960;50.908;4.204;2022-10-22T12:02:23;18.70;99.90
15717;DHT22;7960;50.908;4.204;2022-10-22T12:04:50;19.00;99.90
15717;DHT22;7960;50.908;4.204;2022-10-22T12:07:31;19.20;99.90
15717;DHT22;7960;50.908;4.204;2022-10-22T12:09:58;19.20;99.90
15717;DHT22;7960;50.908;4.204;2022-10-22T12:12:35;19.20;99.90
15717;DHT22;7960;50.908;4.204;2022-10-22T12:15:21;19.00;99.90
15717;DHT22;7960;50.908;4.204;2022-10-22T12:17:49;18.80;99.90
15717;DHT22;7960;50.908;4.204;2022-10-22T12:20:16;18.70;99.90
15717;DHT22;7960;50.908;4.204;2022-10-22T12:22:44;18.90;99.90
15717;DHT22;7960;50.908;4.204;2022-10-22T12:25:17;19.30;99.90
15717;DHT22;7960;50.908;4.204;2022-10-22T12:27:50;19.50;99.90
15717;DHT22;7960;50.908;4.204;2022-10-22T12:30:20;19.50;99.90
15717;DHT22;7960;50.908;4.204;2022-10-22T12:32:51;19.70;99.90
15717;DHT22;7960;50.908;4.204;2022-10-22T12:35:21;19.70;99.90
15717;DHT22;7960;50.908;4.204;2022-10-22T12:37:50;19.90;99.90
15717;DHT22;7960;50.908;4.204;2022-10-22T12:40:19;20.10;99.90
15717;DHT22;7960;50.908;4.204;2022-10-22T12:42:49;20.30;99.90
15717;DHT22;7960;50.908;4.204;2022-10-22T12:45:17;20.50;99.90
15717;DHT22;7960;50.908;4.204;2022-10-22T12:47:45;20.30;99.90
15717;DHT22;7960;50.908;4.204;2022-10-22T12:50:17;20.40;99.90
15717;DHT22;7960;50.908;4.204;2022-10-22T12:52:45;20.50;99.90
15717;DHT22;7960;50.908;4.204;2022-10-22T12:55:17;20.20;99.90
15717;DHT22;7960;50.908;4.204;2022-10-22T12:57:47;20.30;99.90
15717;DHT22;7960;50.908;4.204;2022-10-22T13:00:20;20.50;99.90
15717;DHT22;7960;50.908;4.204;2022-10-22T13:02:48;20.50;99.90
15717;DHT22;7960;50.908;4.204;2022-10-22T13:05:21;20.60;99.90
15717;DHT22;7960;50.908;4.204;2022-10-22T13:07:50;20.60;99.90
15717;DHT22;7960;50.908;4.204;2022-10-22T13:10:21;20.50;99.90
15717;DHT22;7960;50.908;4.204;2022-10-22T13:12:54;20.60;99.90
15717;DHT22;7960;50.908;4.204;2022-10-22T13:15:35;20.80;99.90
15717;DHT22;7960;50.908;4.204;2022-10-22T13:18:05;21.00;99.90
15717;DHT22;7960;50.908;4.204;2022-10-22T13:20:32;21.00;99.90
15717;DHT22;7960;50.908;4.204;2022-10-22T13:23:02;21.20;99.90
15717;DHT22;7960;50.908;4.204;2022-10-22T13:25:31;21.10;99.90
15717;DHT22;7960;50.908;4.204;2022-10-22T13:28:01;21.50;99.90
15717;DHT22;7960;50.908;4.204;2022-10-22T13:30:29;21.80;99.90
15717;DHT22;7960;50.908;4.204;2022-10-22T13:32:58;22.30;99.90
15717;DHT22;7960;50.908;4.204;2022-10-22T13:35:28;22.00;99.90
15717;DHT22;7960;50.908;4.204;2022-10-22T13:37:56;22.40;99.90
15717;DHT22;7960;50.908;4.204;2022-10-22T13:40:24;22.40;99.90
15717;DHT22;7960;50.908;4.204;2022-10-22T13:42:51;21.70;99.90
15717;DHT22;7960;50.908;4.204;2022-10-22T13:45:19;21.10;99.90
15717;DHT22;7960;50.908;4.204;2022-10-22T13:47:49;20.80;99.90
15717;DHT22;7960;50.908;4.204;2022-10-22T13:50:19;20.60;99.90
15717;DHT22;7960;50.908;4.204;2022-10-22T13:52:48;20.40;99.90
15717;DHT22;7960;50.908;4.204;2022-10-22T13:55:19;20.20;99.90
15717;DHT22;7960;50.908;4.204;2022-10-22T13:57:46;20.20;99.90
15717;DHT22;7960;50.908;4.204;2022-10-22T14:00:15;20.20;99.90
15717;DHT22;7960;50.908;4.204;2022-10-22T14:02:46;20.20;99.90
15717;DHT22;7960;50.908;4.204;2022-10-22T14:05:14;20.20;99.90
15717;DHT22;7960;50.908;4.204;2022-10-22T14:07:42;20.00;99.90
15717;DHT22;7960;50.908;4.204;2022-10-22T14:10:14;20.00;99.90
15717;DHT22;7960;50.908;4.204;2022-10-22T14:12:41;20.50;99.90
15717;DHT22;7960;50.908;4.204;2022-10-22T14:15:10;20.60;99.90
15717;DHT22;7960;50.908;4.204;2022-10-22T14:17:38;20.50;99.90
15717;DHT22;7960;50.908;4.204;2022-10-22T14:20:14;20.60;99.90
15717;DHT22;7960;50.908;4.204;2022-10-22T14:22:44;21.00;99.90
15717;DHT22;7960;50.908;4.204;2022-10-22T14:25:13;21.10;99.90
15717;DHT22;7960;50.908;4.204;2022-10-22T14:27:40;21.40;99.90
15717;DHT22;7960;50.908;4.204;2022-10-22T14:30:08;21.60;99.90
15717;DHT22;7960;50.908;4.204;2022-10-22T14:32:35;21.80;99.90
15717;DHT22;7960;50.908;4.204;2022-10-22T14:35:02;21.90;99.90
15717;DHT22;7960;50.908;4.204;2022-10-22T14:37:30;21.90;99.90
15717;DHT22;7960;50.908;4.204;2022-10-22T14:39:57;21.50;99.90
15717;DHT22;7960;50.908;4.204;2022-10-22T14:42:27;21.30;99.90
15717;DHT22;7960;50.908;4.204;2022-10-22T14:44:56;21.30;99.90
15717;DHT22;7960;50.908;4.204;2022-10-22T14:47:22;21.20;99.90
15717;DHT22;7960;50.908;4.204;2022-10-22T14:49:49;20.80;99.90
15717;DHT22;7960;50.908;4.204;2022-10-22T14:52:16;20.40;99.90
15717;DHT22;7960;50.908;4.204;2022-10-22T14:54:46;20.30;99.90
15717;DHT22;7960;50.908;4.204;2022-10-22T14:57:13;20.40;99.90
15717;DHT22;7960;50.908;4.204;2022-10-22T14:59:41;20.40;99.90
15717;DHT22;7960;50.908;4.204;2022-10-22T15:02:11;20.10;99.90
15717;DHT22;7960;50.908;4.204;2022-10-22T15:04:39;20.00;99.90
15717;DHT22;7960;50.908;4.204;2022-10-22T15:07:06;20.00;99.90
15717;DHT22;7960;50.908;4.204;2022-10-22T15:09:33;19.90;99.90
15717;DHT22;7960;50.908;4.204;2022-10-22T15:12:01;19.90;99.90
15717;DHT22;7960;50.908;4.204;2022-10-22T15:14:28;19.70;99.90
15717;DHT22;7960;50.908;4.204;2022-10-22T15:16:55;19.60;99.90
15717;DHT22;7960;50.908;4.204;2022-10-22T15:19:22;19.30;99.90
15717;DHT22;7960;50.908;4.204;2022-10-22T15:21:52;19.40;99.90
15717;DHT22;7960;50.908;4.204;2022-10-22T15:24:19;19.30;99.90
15717;DHT22;7960;50.908;4.204;2022-10-22T15:26:46;19.50;99.90
15717;DHT22;7960;50.908;4.204;2022-10-22T15:29:14;19.50;99.90
15717;DHT22;7960;50.908;4.204;2022-10-22T15:31:44;19.50;99.90
15717;DHT22;7960;50.908;4.204;2022-10-22T15:34:12;19.50;99.90
15717;DHT22;7960;50.908;4.204;2022-10-22T15:36:39;19.50;99.90
15717;DHT22;7960;50.908;4.204;2022-10-22T15:39:08;19.50;99.90
15717;DHT22;7960;50.908;4.204;2022-10-22T15:41:35;19.40;99.90
15717;DHT22;7960;50.908;4.204;2022-10-22T15:44:05;19.20;99.90
15717;DHT22;7960;50.908;4.204;2022-10-22T15:46:34;19.00;99.90
15717;DHT22;7960;50.908;4.204;2022-10-22T15:49:01;18.90;99.90
15717;DHT22;7960;50.908;4.204;2022-10-22T15:51:30;19.00;99.90
15717;DHT22;7960;50.908;4.204;2022-10-22T15:53:58;19.00;99.90
15717;DHT22;7960;50.908;4.204;2022-10-22T15:56:27;18.90;99.90
15717;DHT22;7960;50.908;4.204;2022-10-22T15:58:55;18.80;99.90
15717;DHT22;7960;50.908;4.204;2022-10-22T16:01:23;18.70;99.90
15717;DHT22;7960;50.908;4.204;2022-10-22T16:03:53;18.60;99.90
15717;DHT22;7960;50.908;4.204;2022-10-22T16:06:25;18.50;99.90
15717;DHT22;7960;50.908;4.204;2022-10-22T16:08:53;18.50;99.90
15717;DHT22;7960;50.908;4.204;2022-10-22T16:11:20;18.40;99.90